Time;durP1;ratioP1;P1;durP2;ratioP2;P2;SDS_P1;SDS_P2;PMS_P1;PMS_P2;Temp;Humidity;BMP_temperature;BMP_pressure;BME280_temperature;BME280_humidity;BME280_pressure;Samples;Min_cycle;Max_cycle;Signal;HPM_P1;HPM_P2
2023/02/04 00:00:48;;;;;;;;;;;4.80;99.90;;;;;;4979836;28;20012;-83
2023/02/04 00:03:15;;;;;;;;;;;4.70;99.90;;;;;;4983849;28;19948;-83
2023/02/04 00:05:40;;;;;;;;;;;4.70;99.90;;;;;;4976614;28;19911;-83
2023/02/04 00:08:06;;;;;;;;;;;4.70;99.90;;;;;;4978638;28;19921;-84
2023/02/04 00:10:33;;;;;;;;;;;4.70;99.90;;;;;;4977663;28;20371;-84
2023/02/04 00:12:58;;;;;;;;;;;4.70;99.90;;;;;;4981316;28;19953;-83
2023/02/04 00:15:24;;;;;;;;;;;4.70;99.90;;;;;;4990058;28;20359;-84
2023/02/04 00:17:49;;;;;;;;;;;4.70;99.90;;;;;;4980771;28;19910;-83
2023/02/04 00:20:15;;;;;;;;;;;4.70;99.90;;;;;;4998348;28;20370;-83
2023/02/04 00:22:41;;;;;;;;;;;4.70;99.90;;;;;;4973422;28;19933;-83
2023/02/04 00:25:06;;;;;;;;;;;4.60;99.90;;;;;;4979266;28;19945;-84
2023/02/04 00:27:32;;;;;;;;;;;4.70;99.90;;;;;;4979361;28;19933;-85
2023/02/04 00:29:57;;;;;;;;;;;4.60;99.90;;;;;;4991196;28;19914;-83
2023/02/04 00:32:23;;;;;;;;;;;4.60;99.90;;;;;;4993212;28;19965;-83
2023/02/04 00:34:49;;;;;;;;;;;4.60;99.90;;;;;;4979291;28;19910;-82
2023/02/04 00:37:17;;;;;;;;;;;4.60;99.90;;;;;;4961957;28;19910;-83
2023/02/04 00:39:42;;;;;;;;;;;4.60;99.90;;;;;;4984968;28;19918;-83
2023/02/04 00:42:08;;;;;;;;;;;4.60;99.90;;;;;;4999314;28;20385;-83
2023/02/04 00:44:35;;;;;;;;;;;4.60;99.90;;;;;;4982394;28;19918;-82
2023/02/04 00:47:01;;;;;;;;;;;4.60;99.90;;;;;;4999620;28;19917;-83
2023/02/04 00:49:26;;;;;;;;;;;4.70;99.90;;;;;;4980758;28;19973;-84
2023/02/04 00:51:52;;;;;;;;;;;4.70;99.90;;;;;;4994290;28;19942;-83
2023/02/04 00:54:17;;;;;;;;;;;4.70;99.90;;;;;;4996027;28;19949;-83
2023/02/04 00:56:43;;;;;;;;;;;4.60;99.90;;;;;;4982933;28;19910;-84
2023/02/04 00:59:10;;;;;;;;;;;4.70;99.90;;;;;;4965198;28;19937;-84
2023/02/04 01:01:35;;;;;;;;;;;4.70;99.90;;;;;;4972505;28;19910;-84
2023/02/04 01:04:01;;;;;;;;;;;4.70;99.90;;;;;;4966818;28;19953;-83
2023/02/04 01:06:26;;;;;;;;;;;4.60;99.90;;;;;;4981106;28;20379;-83
2023/02/04 01:08:53;;;;;;;;;;;4.60;99.90;;;;;;4988450;28;20668;-83
2023/02/04 01:11:19;;;;;;;;;;;4.60;99.90;;;;;;4984596;28;19914;-83
2023/02/04 01:13:45;;;;;;;;;;;4.60;99.90;;;;;;4982421;28;20340;-83
2023/02/04 01:16:11;;;;;;;;;;;4.60;99.90;;;;;;4989978;28;19918;-82
2023/02/04 01:18:37;;;;;;;;;;;4.50;99.90;;;;;;4984135;28;20299;-82
2023/02/04 01:21:02;;;;;;;;;;;4.50;99.90;;;;;;4990201;28;19918;-82
2023/02/04 01:23:28;;;;;;;;;;;4.50;99.90;;;;;;4988188;28;19920;-83
2023/02/04 01:25:54;;;;;;;;;;;4.50;99.90;;;;;;4982572;28;19915;-84
2023/02/04 01:28:20;;;;;;;;;;;4.50;99.90;;;;;;4965495;28;19918;-83
2023/02/04 01:30:45;;;;;;;;;;;4.50;99.90;;;;;;4980694;28;19910;-83
2023/02/04 01:33:11;;;;;;;;;;;4.50;99.90;;;;;;4990264;28;19914;-82
2023/02/04 01:35:36;;;;;;;;;;;4.50;99.90;;;;;;4993057;28;19910;-84
2023/02/04 01:38:02;;;;;;;;;;;4.50;99.90;;;;;;4982095;28;19918;-85
2023/02/04 01:40:27;;;;;;;;;;;4.50;99.90;;;;;;4982045;28;19921;-83
2023/02/04 01:42:53;;;;;;;;;;;4.50;99.90;;;;;;4981298;28;19929;-83
2023/02/04 01:45:19;;;;;;;;;;;4.50;99.90;;;;;;4996274;28;19910;-84
2023/02/04 01:47:44;;;;;;;;;;;4.60;99.90;;;;;;4996309;28;19910;-84
2023/02/04 01:50:12;;;;;;;;;;;4.70;99.90;;;;;;4979782;28;20301;-83
2023/02/04 01:52:38;;;;;;;;;;;4.70;99.90;;;;;;4996333;28;19966;-83
2023/02/04 01:55:10;;;;;;;;;;;4.80;99.90;;;;;;4980740;28;19911;-84
2023/02/04 01:57:36;;;;;;;;;;;5.00;99.90;;;;;;4981095;28;19917;-84
2023/02/04 02:00:02;;;;;;;;;;;5.00;99.90;;;;;;4982034;28;20244;-84
2023/02/04 02:02:37;;;;;;;;;;;5.00;99.90;;;;;;4966027;28;19910;-84
2023/02/04 02:05:03;;;;;;;;;;;5.10;99.90;;;;;;4998669;28;20009;-83
2023/02/04 02:07:29;;;;;;;;;;;5.10;99.90;;;;;;4987741;28;19910;-84
2023/02/04 02:09:54;;;;;;;;;;;5.10;99.90;;;;;;4962094;28;19914;-84
2023/02/04 02:12:20;;;;;;;;;;;5.10;99.90;;;;;;4992281;28;19918;-82
2023/02/04 02:14:45;;;;;;;;;;;5.20;99.90;;;;;;4978776;28;20283;-83
2023/02/04 02:17:11;;;;;;;;;;;5.20;99.90;;;;;;4979614;28;19917;-83
2023/02/04 02:19:37;;;;;;;;;;;5.10;99.90;;;;;;4981389;28;19956;-83
2023/02/04 02:22:08;;;;;;;;;;;5.10;99.90;;;;;;4980834;28;19960;-83
2023/02/04 02:24:34;;;;;;;;;;;5.10;99.90;;;;;;4961018;28;19910;-83
2023/02/04 02:27:06;;;;;;;;;;;5.10;99.90;;;;;;4982196;28;19910;-85
2023/02/04 02:29:31;;;;;;;;;;;5.10;99.90;;;;;;4973128;28;19914;-84
2023/02/04 02:31:57;;;;;;;;;;;5.00;99.90;;;;;;4990928;28;19928;-84
2023/02/04 02:34:24;;;;;;;;;;;5.10;99.90;;;;;;4988132;28;19965;-85
2023/02/04 02:36:50;;;;;;;;;;;5.20;99.90;;;;;;4986860;28;19914;-85
2023/02/04 02:39:15;;;;;;;;;;;5.20;99.90;;;;;;4985574;28;19910;-84
2023/02/04 02:41:41;;;;;;;;;;;5.20;99.90;;;;;;4979456;28;19910;-84
2023/02/04 02:44:08;;;;;;;;;;;5.20;99.90;;;;;;4976271;28;20005;-83
2023/02/04 02:46:33;;;;;;;;;;;5.10;99.90;;;;;;4978536;28;19997;-84
2023/02/04 02:48:59;;;;;;;;;;;5.10;99.90;;;;;;4978142;28;20477;-84
2023/02/04 02:51:24;;;;;;;;;;;4.90;99.90;;;;;;4964964;28;19910;-82
2023/02/04 02:53:50;;;;;;;;;;;4.90;99.90;;;;;;4999585;28;19910;-81
2023/02/04 02:56:16;;;;;;;;;;;4.70;99.90;;;;;;4982601;28;19918;-82
2023/02/04 02:58:42;;;;;;;;;;;4.60;99.90;;;;;;4993722;28;19910;-82
2023/02/04 03:01:08;;;;;;;;;;;4.50;99.90;;;;;;4980699;28;19957;-82
2023/02/04 03:03:39;;;;;;;;;;;4.50;99.90;;;;;;4997340;28;19902;-81
2023/02/04 03:06:10;;;;;;;;;;;4.60;99.90;;;;;;4997792;28;19958;-82
2023/02/04 03:08:36;;;;;;;;;;;4.60;99.90;;;;;;4992063;28;19918;-84
2023/02/04 03:11:02;;;;;;;;;;;4.70;99.90;;;;;;4978251;28;20005;-84
2023/02/04 03:13:29;;;;;;;;;;;4.70;99.90;;;;;;4978681;28;19930;-82
2023/02/04 03:16:19;;;;;;;;;;;4.70;99.90;;;;;;4961922;28;19914;-84
2023/02/04 03:18:59;;;;;;;;;;;4.60;99.90;;;;;;4960447;28;19910;-84
2023/02/04 03:21:25;;;;;;;;;;;4.60;99.90;;;;;;4982826;28;19902;-82
2023/02/04 03:23:55;;;;;;;;;;;4.60;99.90;;;;;;4978539;28;20398;-84
2023/02/04 03:26:21;;;;;;;;;;;4.60;99.90;;;;;;4981027;28;19921;-84
2023/02/04 03:28:47;;;;;;;;;;;4.50;99.90;;;;;;4963124;28;19914;-84
2023/02/04 03:31:12;;;;;;;;;;;4.50;99.90;;;;;;4980661;28;19914;-83
2023/02/04 03:33:38;;;;;;;;;;;4.50;99.90;;;;;;4980278;28;20371;-82
2023/02/04 03:36:03;;;;;;;;;;;4.50;99.90;;;;;;4979007;28;19933;-83
2023/02/04 03:38:29;;;;;;;;;;;4.50;99.90;;;;;;4984504;28;20008;-84
2023/02/04 03:40:54;;;;;;;;;;;4.50;99.90;;;;;;4980588;28;19918;-82
2023/02/04 03:43:20;;;;;;;;;;;4.50;99.90;;;;;;4961464;28;19921;-82
2023/02/04 03:45:46;;;;;;;;;;;4.50;99.90;;;;;;4991820;28;19930;-84
2023/02/04 03:48:12;;;;;;;;;;;4.50;99.90;;;;;;4978026;28;20450;-84
2023/02/04 03:50:38;;;;;;;;;;;4.60;99.90;;;;;;4983084;28;19914;-85
2023/02/04 03:53:03;;;;;;;;;;;4.60;99.90;;;;;;4983065;28;19910;-85
2023/02/04 03:55:31;;;;;;;;;;;4.60;99.90;;;;;;4966043;28;19910;-86
2023/02/04 03:57:56;;;;;;;;;;;4.60;99.90;;;;;;4984073;28;19937;-83
2023/02/04 04:00:22;;;;;;;;;;;4.70;99.90;;;;;;4981347;28;19914;-85
2023/02/04 04:02:48;;;;;;;;;;;4.70;99.90;;;;;;4983746;28;19918;-83
2023/02/04 04:05:14;;;;;;;;;;;4.70;99.90;;;;;;4997234;28;19910;-82
2023/02/04 04:07:39;;;;;;;;;;;4.80;99.90;;;;;;5011355;28;19944;-82
2023/02/04 04:10:05;;;;;;;;;;;4.80;99.90;;;;;;5011606;28;19981;-86
2023/02/04 04:12:31;;;;;;;;;;;4.90;99.90;;;;;;5002383;28;19918;-83
2023/02/04 04:14:56;;;;;;;;;;;4.90;99.90;;;;;;5007607;28;19914;-83
2023/02/04 04:17:22;;;;;;;;;;;4.80;99.90;;;;;;5002007;28;19924;-86
2023/02/04 04:19:48;;;;;;;;;;;4.80;99.90;;;;;;5002914;28;19917;-80
2023/02/04 04:22:14;;;;;;;;;;;4.80;99.90;;;;;;4997391;28;20322;-78
2023/02/04 04:24:39;;;;;;;;;;;4.80;99.90;;;;;;4994721;28;20009;-78
2023/02/04 04:27:05;;;;;;;;;;;4.60;99.90;;;;;;4996939;28;19965;-78
2023/02/04 04:29:30;;;;;;;;;;;4.50;99.90;;;;;;4997028;28;20291;-79
2023/02/04 04:31:56;;;;;;;;;;;4.40;99.90;;;;;;4997068;28;19981;-78
2023/02/04 04:34:21;;;;;;;;;;;4.30;99.90;;;;;;4977501;28;20286;-77
2023/02/04 04:36:47;;;;;;;;;;;4.20;99.90;;;;;;4994933;28;19910;-78
2023/02/04 04:39:12;;;;;;;;;;;4.20;99.90;;;;;;4979494;28;19913;-78
2023/02/04 04:41:38;;;;;;;;;;;4.10;99.90;;;;;;5005443;28;19914;-78
2023/02/04 04:44:03;;;;;;;;;;;4.10;99.90;;;;;;4999116;28;19948;-80
2023/02/04 04:46:29;;;;;;;;;;;4.00;99.90;;;;;;4997381;28;19910;-78
2023/02/04 04:48:54;;;;;;;;;;;3.90;99.90;;;;;;4996034;28;20367;-78
2023/02/04 04:51:20;;;;;;;;;;;3.80;99.90;;;;;;4994934;28;19914;-77
2023/02/04 04:53:45;;;;;;;;;;;3.90;99.90;;;;;;4994824;28;19953;-76
2023/02/04 04:56:11;;;;;;;;;;;3.80;99.90;;;;;;4994122;28;19957;-78
2023/02/04 04:58:37;;;;;;;;;;;3.80;99.90;;;;;;4995821;28;20390;-79
2023/02/04 05:01:02;;;;;;;;;;;3.80;99.90;;;;;;4980580;28;19914;-78
2023/02/04 05:03:28;;;;;;;;;;;3.90;99.90;;;;;;4995977;28;20379;-77
2023/02/04 05:05:53;;;;;;;;;;;3.90;99.90;;;;;;4975406;28;19909;-78
2023/02/04 05:08:19;;;;;;;;;;;3.80;99.90;;;;;;4994198;28;19909;-78
2023/02/04 05:10:45;;;;;;;;;;;3.80;99.90;;;;;;4994251;28;20303;-79
2023/02/04 05:13:11;;;;;;;;;;;3.70;99.90;;;;;;4984964;28;19992;-79
2023/02/04 05:15:36;;;;;;;;;;;3.70;99.90;;;;;;4980477;28;20398;-78
2023/02/04 05:18:02;;;;;;;;;;;;;;;;;;4976582;28;19914;-78
2023/02/04 05:20:28;;;;;;;;;;;3.50;99.90;;;;;;4993470;28;19914;-78
2023/02/04 05:22:59;;;;;;;;;;;3.60;99.90;;;;;;4994007;28;19910;-78
2023/02/04 05:25:25;;;;;;;;;;;3.60;99.90;;;;;;4981819;28;20013;-79
2023/02/04 05:27:52;;;;;;;;;;;3.70;99.90;;;;;;4976079;28;20295;-79
2023/02/04 05:30:18;;;;;;;;;;;3.80;99.90;;;;;;4960096;28;19914;-79
2023/02/04 05:32:43;;;;;;;;;;;3.90;99.90;;;;;;4976925;28;19910;-79
2023/02/04 05:35:09;;;;;;;;;;;3.90;99.90;;;;;;4977379;28;19914;-79
2023/02/04 05:37:34;;;;;;;;;;;4.00;99.90;;;;;;4976944;28;19921;-78
2023/02/04 05:40:00;;;;;;;;;;;4.10;99.90;;;;;;4977997;28;20562;-79
2023/02/04 05:42:25;;;;;;;;;;;4.10;99.90;;;;;;4977387;28;19910;-79
2023/02/04 05:44:51;;;;;;;;;;;4.10;99.90;;;;;;4977504;28;20434;-79
2023/02/04 05:47:19;;;;;;;;;;;4.10;99.90;;;;;;4980847;28;20352;-77
2023/02/04 05:49:44;;;;;;;;;;;4.20;99.90;;;;;;4975669;28;19961;-78
2023/02/04 05:52:10;;;;;;;;;;;4.10;99.90;;;;;;4975833;28;19972;-78
2023/02/04 05:54:35;;;;;;;;;;;4.10;99.90;;;;;;4975554;28;20407;-79
2023/02/04 05:57:01;;;;;;;;;;;4.10;99.90;;;;;;4981020;28;20217;-78
2023/02/04 05:59:26;;;;;;;;;;;4.00;99.90;;;;;;4976546;28;19925;-78
2023/02/04 06:01:52;;;;;;;;;;;4.00;99.90;;;;;;4975140;28;19961;-79
2023/02/04 06:04:18;;;;;;;;;;;4.00;99.90;;;;;;4976076;28;19941;-79
2023/02/04 06:06:43;;;;;;;;;;;4.10;99.90;;;;;;4977356;28;19914;-78
2023/02/04 06:09:15;;;;;;;;;;;4.20;99.90;;;;;;4988668;28;19918;-83
2023/02/04 06:11:41;;;;;;;;;;;4.20;99.90;;;;;;4982646;28;19942;-82
2023/02/04 06:14:06;;;;;;;;;;;4.20;99.90;;;;;;4987151;28;19922;-84
2023/02/04 06:16:32;;;;;;;;;;;4.20;99.90;;;;;;4979181;28;20406;-82
2023/02/04 06:18:57;;;;;;;;;;;4.20;99.90;;;;;;4987052;28;20268;-83
2023/02/04 06:21:23;;;;;;;;;;;4.20;99.90;;;;;;4958438;28;19925;-81
2023/02/04 06:23:48;;;;;;;;;;;4.20;99.90;;;;;;4987274;28;20023;-84
2023/02/04 06:26:14;;;;;;;;;;;4.20;99.90;;;;;;4985941;28;19910;-83
2023/02/04 06:28:40;;;;;;;;;;;4.20;99.90;;;;;;4987806;28;20395;-84
2023/02/04 06:31:07;;;;;;;;;;;4.20;99.90;;;;;;4990294;28;19919;-80
2023/02/04 06:33:34;;;;;;;;;;;4.30;99.90;;;;;;4996994;28;19910;-84
2023/02/04 06:36:02;;;;;;;;;;;4.30;99.90;;;;;;4982848;28;19903;-87
2023/02/04 06:38:28;;;;;;;;;;;4.30;99.90;;;;;;4999980;28;20029;-85
2023/02/04 06:40:54;;;;;;;;;;;4.30;99.90;;;;;;4999981;28;19902;-84
2023/02/04 06:43:21;;;;;;;;;;;4.30;99.90;;;;;;4999005;28;20421;-84
2023/02/04 06:45:47;;;;;;;;;;;4.30;99.90;;;;;;4985760;28;19910;-85
2023/02/04 06:48:12;;;;;;;;;;;4.30;99.90;;;;;;4997672;28;19981;-82
2023/02/04 06:50:38;;;;;;;;;;;4.30;99.90;;;;;;4986510;28;19956;-83
2023/02/04 06:53:03;;;;;;;;;;;4.30;99.90;;;;;;4986409;28;19916;-83
2023/02/04 06:55:29;;;;;;;;;;;4.30;99.90;;;;;;4983719;28;19920;-83
2023/02/04 06:57:55;;;;;;;;;;;4.30;99.90;;;;;;4987197;28;19910;-85
2023/02/04 07:00:20;;;;;;;;;;;4.30;99.90;;;;;;4968528;28;19910;-81
2023/02/04 07:02:46;;;;;;;;;;;4.40;99.90;;;;;;4978730;28;19917;-82
2023/02/04 07:05:11;;;;;;;;;;;4.40;99.90;;;;;;4970588;28;19898;-83
2023/02/04 07:07:37;;;;;;;;;;;4.40;99.90;;;;;;4993668;28;19917;-83
2023/02/04 07:10:02;;;;;;;;;;;4.50;99.90;;;;;;5001552;28;19952;-81
2023/02/04 07:12:28;;;;;;;;;;;4.60;99.90;;;;;;5005589;28;19977;-83
2023/02/04 07:14:54;;;;;;;;;;;4.60;99.90;;;;;;5009683;28;19914;-83
2023/02/04 07:17:19;;;;;;;;;;;4.60;99.90;;;;;;5008845;28;19917;-82
2023/02/04 07:19:45;;;;;;;;;;;4.60;99.90;;;;;;5009304;28;19924;-81
2023/02/04 07:22:10;;;;;;;;;;;4.60;99.90;;;;;;5002318;28;19910;-83
2023/02/04 07:24:36;;;;;;;;;;;4.70;99.90;;;;;;5002932;28;19921;-82
2023/02/04 07:27:01;;;;;;;;;;;4.70;99.90;;;;;;4999078;28;19910;-83
2023/02/04 07:29:27;;;;;;;;;;;4.70;99.90;;;;;;4987035;28;19918;-82
2023/02/04 07:31:53;;;;;;;;;;;4.70;99.90;;;;;;5001842;28;19914;-83
2023/02/04 07:34:19;;;;;;;;;;;4.70;99.90;;;;;;4992526;28;19905;-83
2023/02/04 07:36:44;;;;;;;;;;;4.70;99.90;;;;;;5011860;28;19913;-84
2023/02/04 07:39:13;;;;;;;;;;;4.70;99.90;;;;;;5007971;28;19920;-81
2023/02/04 07:41:40;;;;;;;;;;;4.70;99.90;;;;;;5006667;28;19917;-82
2023/02/04 07:44:06;;;;;;;;;;;4.60;99.90;;;;;;5012000;28;20000;-82
2023/02/04 07:46:38;;;;;;;;;;;4.60;99.90;;;;;;5004629;28;20303;-86
2023/02/04 07:49:06;;;;;;;;;;;4.60;99.90;;;;;;5006029;28;19969;-83
2023/02/04 07:51:32;;;;;;;;;;;4.70;99.90;;;;;;5008585;28;19909;-83
2023/02/04 07:53:57;;;;;;;;;;;4.70;99.90;;;;;;5002690;28;20295;-82
2023/02/04 07:56:23;;;;;;;;;;;4.70;99.70;;;;;;5002222;28;20039;-83
2023/02/04 07:58:48;;;;;;;;;;;4.70;99.70;;;;;;5001043;28;19910;-82
2023/02/04 08:01:14;;;;;;;;;;;4.70;99.90;;;;;;4998593;28;20324;-84
2023/02/04 08:03:41;;;;;;;;;;;4.70;99.90;;;;;;5016833;28;19941;-84
2023/02/04 08:06:07;;;;;;;;;;;4.70;99.90;;;;;;4985492;28;19910;-81
2023/02/04 08:08:33;;;;;;;;;;;4.70;99.30;;;;;;4988967;28;19914;-82
2023/02/04 08:10:58;;;;;;;;;;;4.80;99.00;;;;;;4971532;28;19922;-83
2023/02/04 08:13:24;;;;;;;;;;;4.80;98.70;;;;;;4986160;28;19925;-83
2023/02/04 08:15:50;;;;;;;;;;;4.80;98.50;;;;;;4986150;28;19910;-83
2023/02/04 08:18:15;;;;;;;;;;;4.80;98.40;;;;;;4988793;28;19941;-84
2023/02/04 08:20:41;;;;;;;;;;;4.90;98.30;;;;;;4989552;28;19910;-84
2023/02/04 08:23:07;;;;;;;;;;;4.90;98.30;;;;;;4973354;28;19936;-85
2023/02/04 08:25:32;;;;;;;;;;;5.00;98.10;;;;;;4990938;28;19914;-83
2023/02/04 08:28:03;;;;;;;;;;;5.10;97.50;;;;;;4974861;28;19918;-83
2023/02/04 08:30:29;;;;;;;;;;;5.10;97.50;;;;;;4996505;28;19925;-82
2023/02/04 08:32:55;;;;;;;;;;;5.10;97.20;;;;;;4990613;28;19966;-84
2023/02/04 08:35:20;;;;;;;;;;;5.20;97.20;;;;;;4963045;28;19925;-84
2023/02/04 08:37:46;;;;;;;;;;;5.20;97.10;;;;;;5000243;28;19911;-82
2023/02/04 08:40:11;;;;;;;;;;;5.20;96.80;;;;;;4987896;28;19965;-83
2023/02/04 08:42:37;;;;;;;;;;;5.30;96.50;;;;;;4971283;28;19977;-84
2023/02/04 08:45:03;;;;;;;;;;;5.30;96.30;;;;;;4972682;28;20007;-83
2023/02/04 08:47:28;;;;;;;;;;;5.30;96.20;;;;;;4992063;28;19914;-82
2023/02/04 08:49:54;;;;;;;;;;;5.20;96.10;;;;;;4996432;28;19917;-83
2023/02/04 08:52:19;;;;;;;;;;;5.20;96.40;;;;;;4994376;28;19901;-83
2023/02/04 08:54:45;;;;;;;;;;;5.10;96.40;;;;;;4990829;28;20311;-82
2023/02/04 08:57:11;;;;;;;;;;;4.90;96.80;;;;;;4989169;28;19921;-82
2023/02/04 08:59:36;;;;;;;;;;;4.90;97.10;;;;;;4987339;28;20359;-83
2023/02/04 09:02:02;;;;;;;;;;;4.80;97.40;;;;;;4992023;28;19946;-83
2023/02/04 09:04:27;;;;;;;;;;;4.80;97.60;;;;;;4992772;28;19921;-83
2023/02/04 09:06:53;;;;;;;;;;;4.90;97.40;;;;;;4996016;28;19914;-83
2023/02/04 09:09:19;;;;;;;;;;;5.00;97.50;;;;;;4992689;28;19914;-83
2023/02/04 09:11:44;;;;;;;;;;;5.40;97.40;;;;;;5000662;28;19917;-83
2023/02/04 09:14:10;;;;;;;;;;;5.90;95.90;;;;;;4989868;28;19910;-82
2023/02/04 09:16:35;;;;;;;;;;;6.30;94.60;;;;;;4994203;28;19928;-84
2023/02/04 09:19:01;;;;;;;;;;;6.50;93.70;;;;;;4992643;28;19910;-84
2023/02/04 09:21:27;;;;;;;;;;;6.60;93.20;;;;;;5004539;28;19910;-82
2023/02/04 09:23:53;;;;;;;;;;;6.60;93.30;;;;;;4995977;28;19954;-83
2023/02/04 09:26:19;;;;;;;;;;;6.60;93.10;;;;;;4973416;28;19917;-83
2023/02/04 09:28:46;;;;;;;;;;;6.70;92.80;;;;;;4986355;28;19921;-83
2023/02/04 09:31:11;;;;;;;;;;;6.60;92.50;;;;;;4988866;28;20383;-82
2023/02/04 09:33:37;;;;;;;;;;;6.50;92.00;;;;;;4987718;28;19910;-84
2023/02/04 09:36:03;;;;;;;;;;;6.40;92.50;;;;;;4986169;28;19976;-83
2023/02/04 09:38:28;;;;;;;;;;;6.30;92.70;;;;;;4986178;28;20000;-83
2023/02/04 09:40:55;;;;;;;;;;;6.20;92.60;;;;;;4989254;28;19910;-83
2023/02/04 09:43:24;;;;;;;;;;;6.10;93.00;;;;;;4998803;28;20360;-82
2023/02/04 09:45:50;;;;;;;;;;;6.20;92.40;;;;;;4981861;28;20331;-82
2023/02/04 09:48:16;;;;;;;;;;;6.10;92.60;;;;;;4958543;28;19979;-82
2023/02/04 09:50:41;;;;;;;;;;;6.10;92.80;;;;;;4971569;28;19918;-83
2023/02/04 09:53:10;;;;;;;;;;;6.10;93.20;;;;;;5003728;28;19914;-83
2023/02/04 09:55:39;;;;;;;;;;;6.30;92.30;;;;;;4988497;28;19914;-84
2023/02/04 09:58:10;;;;;;;;;;;6.30;92.50;;;;;;5002944;28;19914;-83
2023/02/04 10:00:35;;;;;;;;;;;6.30;92.40;;;;;;4991239;28;19910;-83
2023/02/04 10:03:01;;;;;;;;;;;6.30;92.60;;;;;;4993507;28;19916;-82
2023/02/04 10:05:29;;;;;;;;;;;6.20;92.20;;;;;;4997301;28;19949;-81
2023/02/04 10:07:55;;;;;;;;;;;6.20;93.00;;;;;;4992712;28;19910;-84
2023/02/04 10:10:24;;;;;;;;;;;6.10;93.00;;;;;;4971316;28;19985;-82
2023/02/04 10:12:51;;;;;;;;;;;6.20;92.80;;;;;;5000428;28;19951;-84
2023/02/04 10:15:21;;;;;;;;;;;6.20;92.60;;;;;;5018436;28;19910;-84
2023/02/04 10:17:48;;;;;;;;;;;6.10;92.60;;;;;;5004973;28;20459;-83
2023/02/04 10:20:13;;;;;;;;;;;6.00;93.10;;;;;;5022976;28;19909;-83
2023/02/04 10:22:39;;;;;;;;;;;6.00;93.50;;;;;;4989489;28;19914;-83
2023/02/04 10:25:12;;;;;;;;;;;6.00;93.30;;;;;;5004991;28;19910;-83
2023/02/04 10:27:51;;;;;;;;;;;5.90;93.40;;;;;;5009339;28;19924;-83
2023/02/04 10:30:19;;;;;;;;;;;5.50;94.40;;;;;;5006236;28;19913;-83
2023/02/04 10:32:45;;;;;;;;;;;5.10;95.30;;;;;;5006493;28;19958;-84
2023/02/04 10:35:13;;;;;;;;;;;4.90;96.20;;;;;;4979023;28;20890;-83
2023/02/04 10:37:39;;;;;;;;;;;4.80;96.50;;;;;;4989962;28;19914;-82
2023/02/04 10:40:04;;;;;;;;;;;4.60;97.00;;;;;;5016049;28;19929;-85
2023/02/04 10:42:30;;;;;;;;;;;4.50;97.40;;;;;;5009481;28;19924;-83
2023/02/04 10:44:56;;;;;;;;;;;4.50;98.30;;;;;;4991512;28;19929;-83
2023/02/04 10:47:29;;;;;;;;;;;4.50;98.70;;;;;;5009437;28;19958;-83
2023/02/04 10:50:13;;;;;;;;;;;4.50;98.40;;;;;;4992074;28;19910;-82
2023/02/04 10:52:41;;;;;;;;;;;4.60;98.30;;;;;;5012231;28;19914;-82
2023/02/04 10:55:11;;;;;;;;;;;4.50;98.40;;;;;;5004008;28;20359;-83
2023/02/04 10:57:40;;;;;;;;;;;4.60;98.80;;;;;;5006297;28;19917;-82
2023/02/04 11:00:14;;;;;;;;;;;4.60;98.60;;;;;;4998616;28;20366;-83
2023/02/04 11:02:42;;;;;;;;;;;4.60;98.80;;;;;;5027593;28;19909;-83
2023/02/04 11:05:13;;;;;;;;;;;4.70;99.20;;;;;;5020631;28;19973;-82
2023/02/04 11:07:38;;;;;;;;;;;5.00;98.80;;;;;;4987662;28;19949;-83
2023/02/04 11:10:04;;;;;;;;;;;5.20;97.40;;;;;;5003408;23;19953;-82
2023/02/04 11:12:41;;;;;;;;;;;5.60;96.20;;;;;;5012748;28;19925;-83
2023/02/04 11:15:27;;;;;;;;;;;5.80;94.10;;;;;;4976012;29;19925;-83
2023/02/04 11:18:02;;;;;;;;;;;5.90;93.20;;;;;;4975085;29;19910;-83
2023/02/04 11:20:31;;;;;;;;;;;5.70;92.60;;;;;;4956325;28;19914;-83
2023/02/04 11:23:12;;;;;;;;;;;5.40;93.30;;;;;;4982389;28;19910;-83
2023/02/04 11:25:39;;;;;;;;;;;5.10;94.10;;;;;;4986370;28;19914;-82
2023/02/04 11:28:23;;;;;;;;;;;4.90;95.00;;;;;;5000240;28;20343;-80
2023/02/04 11:30:57;;;;;;;;;;;5.00;95.80;;;;;;4994136;28;19917;-81
2023/02/04 11:33:23;;;;;;;;;;;5.00;95.70;;;;;;5011051;28;20149;-81
2023/02/04 11:36:06;;;;;;;;;;;5.10;96.00;;;;;;4987753;28;19969;-82
2023/02/04 11:38:31;;;;;;;;;;;5.20;95.90;;;;;;4957473;29;19915;-82
2023/02/04 11:40:58;;;;;;;;;;;5.20;95.40;;;;;;4960621;29;19916;-81
2023/02/04 11:43:23;;;;;;;;;;;5.20;94.50;;;;;;4970968;28;19910;-82
2023/02/04 11:45:59;;;;;;;;;;;5.20;94.10;;;;;;4959846;29;19922;-83
2023/02/04 11:48:25;;;;;;;;;;;5.30;95.00;;;;;;4977634;28;19917;-82
2023/02/04 11:50:58;;;;;;;;;;;5.50;94.30;;;;;;4979398;28;19910;-83
2023/02/04 11:53:27;;;;;;;;;;;5.60;94.40;;;;;;4979448;28;20325;-83
2023/02/04 11:55:52;;;;;;;;;;;6.00;95.20;;;;;;4956688;29;19947;-82
2023/02/04 11:58:19;;;;;;;;;;;6.20;94.10;;;;;;4961867;29;19974;-83
2023/02/04 12:00:45;;;;;;;;;;;6.30;93.60;;;;;;4967369;28;19910;-83
2023/02/04 12:03:21;;;;;;;;;;;6.10;93.30;;;;;;4985826;28;19970;-83
2023/02/04 12:05:48;;;;;;;;;;;6.10;93.60;;;;;;4962334;28;19921;-84
2023/02/04 12:08:23;;;;;;;;;;;5.90;92.90;;;;;;4958421;28;19977;-84
2023/02/04 12:10:49;;;;;;;;;;;5.70;93.60;;;;;;4976183;28;19914;-84
2023/02/04 12:13:17;;;;;;;;;;;5.60;94.30;;;;;;4979102;28;19917;-85
2023/02/04 12:15:50;;;;;;;;;;;5.60;94.70;;;;;;4961315;28;20434;-84
2023/02/04 12:18:16;;;;;;;;;;;5.60;94.30;;;;;;4971099;28;20056;-83
2023/02/04 12:20:42;;;;;;;;;;;5.70;93.90;;;;;;4999028;28;19917;-85
2023/02/04 12:23:07;;;;;;;;;;;5.60;94.00;;;;;;4961680;28;19982;-84
2023/02/04 12:25:33;;;;;;;;;;;5.60;94.40;;;;;;4984225;28;19945;-84
2023/02/04 12:27:58;;;;;;;;;;;5.70;94.70;;;;;;4980126;28;19989;-82
2023/02/04 12:30:25;;;;;;;;;;;5.80;94.40;;;;;;4996000;28;19933;-84
2023/02/04 12:32:50;;;;;;;;;;;5.70;93.10;;;;;;4992005;28;20027;-83
2023/02/04 12:35:18;;;;;;;;;;;5.70;93.90;;;;;;4993274;28;20018;-82
2023/02/04 12:37:46;;;;;;;;;;;5.70;94.30;;;;;;4994782;28;19925;-83
2023/02/04 12:40:15;;;;;;;;;;;5.80;94.60;;;;;;5001230;28;19977;-82
2023/02/04 12:42:41;;;;;;;;;;;6.00;93.70;;;;;;4970807;28;19914;-82
2023/02/04 12:45:07;;;;;;;;;;;6.00;93.40;;;;;;4997377;28;19921;-82
2023/02/04 12:47:32;;;;;;;;;;;5.90;93.60;;;;;;4977307;28;19906;-82
2023/02/04 12:49:59;;;;;;;;;;;5.80;93.80;;;;;;4971039;28;19922;-82
2023/02/04 12:52:25;;;;;;;;;;;5.70;93.90;;;;;;4972495;28;19910;-81
2023/02/04 12:54:50;;;;;;;;;;;5.60;94.10;;;;;;4983190;28;20405;-82
2023/02/04 12:57:18;;;;;;;;;;;5.60;94.00;;;;;;4979722;28;19918;-83
2023/02/04 12:59:47;;;;;;;;;;;5.70;94.10;;;;;;4997255;28;20035;-82
2023/02/04 13:02:13;;;;;;;;;;;6.00;93.90;;;;;;4993492;28;19958;-85
2023/02/04 13:04:39;;;;;;;;;;;6.20;93.70;;;;;;4983219;28;19933;-83
2023/02/04 13:07:06;;;;;;;;;;;6.40;93.10;;;;;;4964510;28;19917;-83
2023/02/04 13:09:32;;;;;;;;;;;6.40;92.20;;;;;;4957280;28;20440;-85
2023/02/04 13:11:58;;;;;;;;;;;6.40;91.50;;;;;;4964722;28;19973;-84
2023/02/04 13:14:24;;;;;;;;;;;6.50;91.50;;;;;;4982644;28;20384;-84
2023/02/04 13:16:49;;;;;;;;;;;6.50;90.60;;;;;;4957855;29;19918;-84
2023/02/04 13:19:15;;;;;;;;;;;6.40;90.70;;;;;;4973263;28;20322;-84
2023/02/04 13:21:40;;;;;;;;;;;6.20;90.70;;;;;;4983680;28;19910;-83
2023/02/04 13:24:06;;;;;;;;;;;6.00;91.20;;;;;;4990451;28;19993;-83
2023/02/04 13:26:31;;;;;;;;;;;6.00;91.50;;;;;;4982503;28;19917;-82
2023/02/04 13:28:57;;;;;;;;;;;5.80;90.90;;;;;;4985928;28;20045;-80
2023/02/04 13:31:22;;;;;;;;;;;5.50;91.20;;;;;;5019410;28;19902;-82
2023/02/04 13:33:55;;;;;;;;;;;5.30;91.80;;;;;;5006184;28;19906;-80
2023/02/04 13:36:20;;;;;;;;;;;5.10;92.30;;;;;;4982452;28;19908;-83
2023/02/04 13:38:46;;;;;;;;;;;5.10;92.70;;;;;;5066071;23;19953;-81
2023/02/04 13:41:13;;;;;;;;;;;5.00;93.00;;;;;;5011794;28;19952;-80
2023/02/04 13:43:42;;;;;;;;;;;4.90;93.10;;;;;;5023193;28;19937;-80
2023/02/04 13:46:09;;;;;;;;;;;4.90;93.50;;;;;;4993083;28;19914;-81
2023/02/04 13:49:14;;;;;;;;;;;4.90;93.60;;;;;;5011652;28;19909;-82
2023/02/04 13:51:41;;;;;;;;;;;4.90;93.90;;;;;;4988722;28;19964;-81
2023/02/04 13:54:07;;;;;;;;;;;4.90;92.90;;;;;;5003894;28;19988;-81
2023/02/04 13:56:46;;;;;;;;;;;4.90;92.70;;;;;;4993435;28;20009;-82
2023/02/04 13:59:33;;;;;;;;;;;5.00;92.70;;;;;;4984533;28;20012;-82
2023/02/04 14:01:59;;;;;;;;;;;5.00;92.50;;;;;;4964762;28;19922;-81
2023/02/04 14:04:26;;;;;;;;;;;5.00;92.20;;;;;;4980951;28;19917;-81
2023/02/04 14:06:53;;;;;;;;;;;4.90;92.60;;;;;;4992127;28;19914;-82
2023/02/04 14:09:32;;;;;;;;;;;4.80;92.90;;;;;;4981974;28;19914;-82
2023/02/04 14:11:59;;;;;;;;;;;4.90;92.60;;;;;;4999157;28;19914;-82
2023/02/04 14:14:26;;;;;;;;;;;4.80;92.80;;;;;;4996321;28;20247;-82
2023/02/04 14:16:58;;;;;;;;;;;4.90;92.10;;;;;;4983124;28;19913;-81
2023/02/04 14:19:26;;;;;;;;;;;4.90;92.10;;;;;;4979991;28;20287;-82
2023/02/04 14:21:52;;;;;;;;;;;4.90;92.20;;;;;;5008114;28;20262;-82
2023/02/04 14:24:25;;;;;;;;;;;5.00;92.60;;;;;;4995365;28;19921;-84
2023/02/04 14:26:51;;;;;;;;;;;5.00;92.60;;;;;;4988411;28;19914;-82
2023/02/04 14:29:17;;;;;;;;;;;5.20;91.90;;;;;;4963227;28;19925;-82